sensor_id;sensor_type;location;lat;lon;timestamp;pressure;altitude;pressure_sealevel;temperature;humidity
31717;BME280;18301;51.076;17.046;2023-04-21T00:05:01;100419.75;;;10.76;80.06
31717;BME280;18301;51.076;17.046;2023-04-21T00:10:05;100402.94;;;10.72;79.42
31717;BME280;18301;51.076;17.046;2023-04-21T00:15:07;100408.09;;;10.75;79.36
31717;BME280;18301;51.076;17.046;2023-04-21T00:20:10;100418.06;;;10.62;79.79
31717;BME280;18301;51.076;17.046;2023-04-21T00:25:12;100407.50;;;10.59;80.04
31717;BME280;18301;51.076;17.046;2023-04-21T00:30:15;100400.63;;;10.55;79.94
31717;BME280;18301;51.076;17.046;2023-04-21T00:35:17;100413.56;;;10.50;79.93
31717;BME280;18301;51.076;17.046;2023-04-21T00:40:18;100412.25;;;10.55;79.44
31717;BME280;18301;51.076;17.046;2023-04-21T00:45:20;100401.28;;;10.46;79.40
31717;BME280;18301;51.076;17.046;2023-04-21T00:50:22;100397.34;;;10.39;79.70
31717;BME280;18301;51.076;17.046;2023-04-21T00:55:24;100403.81;;;10.36;79.35
31717;BME280;18301;51.076;17.046;2023-04-21T01:00:25;100409.09;;;10.38;79.50
31717;BME280;18301;51.076;17.046;2023-04-21T01:05:27;100414.72;;;10.34;78.96
31717;BME280;18301;51.076;17.046;2023-04-21T01:10:28;100405.75;;;10.21;79.15
31717;BME280;18301;51.076;17.046;2023-04-21T01:15:30;100403.25;;;10.18;79.53
31717;BME280;18301;51.076;17.046;2023-04-21T01:20:31;100409.41;;;10.20;78.91
31717;BME280;18301;51.076;17.046;2023-04-21T01:25:33;100405.44;;;10.13;79.08
31717;BME280;18301;51.076;17.046;2023-04-21T01:30:34;100405.22;;;10.16;79.06
31717;BME280;18301;51.076;17.046;2023-04-21T01:35:36;100395.75;;;10.10;79.11
31717;BME280;18301;51.076;17.046;2023-04-21T01:40:38;100410.41;;;10.06;79.25
31717;BME280;18301;51.076;17.046;2023-04-21T01:45:42;100405.56;;;9.99;79.42
31717;BME280;18301;51.076;17.046;2023-04-21T01:50:43;100399.41;;;9.97;79.13
31717;BME280;18301;51.076;17.046;2023-04-21T01:55:45;100401.38;;;9.95;79.07
31717;BME280;18301;51.076;17.046;2023-04-21T02:00:46;100404.81;;;9.84;79.21
31717;BME280;18301;51.076;17.046;2023-04-21T02:05:49;100404.28;;;9.79;79.18
31717;BME280;18301;51.076;17.046;2023-04-21T02:10:51;100411.72;;;9.75;78.93
31717;BME280;18301;51.076;17.046;2023-04-21T02:15:52;100408.94;;;9.64;79.20
31717;BME280;18301;51.076;17.046;2023-04-21T02:21:12;100411.59;;;9.51;79.32
31717;BME280;18301;51.076;17.046;2023-04-21T02:26:14;100410.09;;;9.47;79.45
31717;BME280;18301;51.076;17.046;2023-04-21T02:31:16;100412.34;;;9.40;79.40
31717;BME280;18301;51.076;17.046;2023-04-21T02:36:19;100421.81;;;9.33;80.05
31717;BME280;18301;51.076;17.046;2023-04-21T02:41:21;100427.22;;;9.33;79.91
31717;BME280;18301;51.076;17.046;2023-04-21T02:46:23;100430.00;;;9.32;79.88
31717;BME280;18301;51.076;17.046;2023-04-21T02:51:24;100435.13;;;9.22;79.89
31717;BME280;18301;51.076;17.046;2023-04-21T02:56:27;100438.66;;;9.10;79.94
31717;BME280;18301;51.076;17.046;2023-04-21T03:01:28;100431.75;;;9.06;80.11
31717;BME280;18301;51.076;17.046;2023-04-21T03:06:31;100434.41;;;8.93;79.92
31717;BME280;18301;51.076;17.046;2023-04-21T03:11:33;100439.09;;;8.89;80.24
31717;BME280;18301;51.076;17.046;2023-04-21T03:16:34;100438.66;;;8.83;80.07
31717;BME280;18301;51.076;17.046;2023-04-21T03:21:36;100433.34;;;8.68;80.15
31717;BME280;18301;51.076;17.046;2023-04-21T03:26:39;100432.13;;;8.60;80.46
31717;BME280;18301;51.076;17.046;2023-04-21T03:31:41;100438.63;;;8.56;80.54
31717;BME280;18301;51.076;17.046;2023-04-21T03:36:42;100443.72;;;8.60;80.31
31717;BME280;18301;51.076;17.046;2023-04-21T03:41:44;100445.63;;;8.58;80.44
31717;BME280;18301;51.076;17.046;2023-04-21T03:46:45;100439.59;;;8.55;80.49
31717;BME280;18301;51.076;17.046;2023-04-21T03:51:47;100434.63;;;8.48;80.30
31717;BME280;18301;51.076;17.046;2023-04-21T03:56:48;100439.16;;;8.48;80.11
31717;BME280;18301;51.076;17.046;2023-04-21T04:01:50;100441.91;;;8.46;80.44
31717;BME280;18301;51.076;17.046;2023-04-21T04:06:51;100447.00;;;8.37;80.42
31717;BME280;18301;51.076;17.046;2023-04-21T04:11:53;100455.66;;;8.42;80.71
31717;BME280;18301;51.076;17.046;2023-04-21T04:16:54;100458.25;;;8.43;80.99
31717;BME280;18301;51.076;17.046;2023-04-21T04:21:58;100470.81;;;8.57;81.14
31717;BME280;18301;51.076;17.046;2023-04-21T04:27:00;100456.19;;;8.61;81.04
31717;BME280;18301;51.076;17.046;2023-04-21T04:32:03;100461.09;;;8.69;81.04
31717;BME280;18301;51.076;17.046;2023-04-21T04:37:06;100454.34;;;8.76;80.88
31717;BME280;18301;51.076;17.046;2023-04-21T04:42:11;100449.88;;;8.89;81.07
31717;BME280;18301;51.076;17.046;2023-04-21T04:47:12;100457.91;;;9.04;80.95
31717;BME280;18301;51.076;17.046;2023-04-21T04:52:14;100460.34;;;9.21;81.24
31717;BME280;18301;51.076;17.046;2023-04-21T04:57:15;100462.00;;;9.36;80.94
31717;BME280;18301;51.076;17.046;2023-04-21T05:02:17;100450.50;;;9.60;81.09
31717;BME280;18301;51.076;17.046;2023-04-21T05:07:19;100457.09;;;9.81;80.73
31717;BME280;18301;51.076;17.046;2023-04-21T05:12:21;100445.56;;;10.05;80.69
31717;BME280;18301;51.076;17.046;2023-04-21T05:17:22;100452.25;;;10.38;80.32
31717;BME280;18301;51.076;17.046;2023-04-21T05:22:24;100463.41;;;10.70;79.05
31717;BME280;18301;51.076;17.046;2023-04-21T05:27:26;100460.28;;;11.00;77.39
31717;BME280;18301;51.076;17.046;2023-04-21T05:32:27;100456.22;;;11.29;75.56
31717;BME280;18301;51.076;17.046;2023-04-21T05:37:29;100460.31;;;11.35;73.58
31717;BME280;18301;51.076;17.046;2023-04-21T05:42:31;100462.53;;;11.41;69.41
31717;BME280;18301;51.076;17.046;2023-04-21T05:47:32;100458.00;;;11.42;72.27
31717;BME280;18301;51.076;17.046;2023-04-21T05:52:34;100457.56;;;11.59;70.88
31717;BME280;18301;51.076;17.046;2023-04-21T05:57:37;100459.63;;;11.91;70.63
31717;BME280;18301;51.076;17.046;2023-04-21T06:02:38;100467.03;;;12.00;68.20
31717;BME280;18301;51.076;17.046;2023-04-21T06:07:40;100473.44;;;12.10;67.90
31717;BME280;18301;51.076;17.046;2023-04-21T06:12:42;100469.00;;;12.09;66.90
31717;BME280;18301;51.076;17.046;2023-04-21T06:17:43;100475.91;;;12.25;67.35
31717;BME280;18301;51.076;17.046;2023-04-21T06:22:45;100466.81;;;12.48;65.01
31717;BME280;18301;51.076;17.046;2023-04-21T06:27:46;100466.56;;;12.51;66.49
31717;BME280;18301;51.076;17.046;2023-04-21T06:32:48;100466.28;;;12.77;66.42
31717;BME280;18301;51.076;17.046;2023-04-21T06:37:49;100470.19;;;12.95;65.10
31717;BME280;18301;51.076;17.046;2023-04-21T06:42:51;100470.66;;;13.00;63.25
31717;BME280;18301;51.076;17.046;2023-04-21T06:47:52;100463.97;;;13.16;65.31
31717;BME280;18301;51.076;17.046;2023-04-21T06:52:54;100460.94;;;13.41;63.61
31717;BME280;18301;51.076;17.046;2023-04-21T06:57:55;100463.31;;;13.34;62.67
31717;BME280;18301;51.076;17.046;2023-04-21T07:02:57;100462.38;;;13.45;62.99
31717;BME280;18301;51.076;17.046;2023-04-21T07:07:59;100465.59;;;13.50;62.06
31717;BME280;18301;51.076;17.046;2023-04-21T07:13:00;100465.97;;;13.67;62.78
31717;BME280;18301;51.076;17.046;2023-04-21T07:18:02;100465.88;;;13.89;61.19
31717;BME280;18301;51.076;17.046;2023-04-21T07:23:03;100462.53;;;14.07;59.47
31717;BME280;18301;51.076;17.046;2023-04-21T07:28:05;100467.69;;;14.10;61.37
31717;BME280;18301;51.076;17.046;2023-04-21T07:33:07;100463.53;;;14.36;60.09
31717;BME280;18301;51.076;17.046;2023-04-21T07:38:09;100457.63;;;14.52;60.45
31717;BME280;18301;51.076;17.046;2023-04-21T07:43:10;100461.69;;;14.67;58.76
31717;BME280;18301;51.076;17.046;2023-04-21T07:48:12;100460.03;;;14.86;58.51
31717;BME280;18301;51.076;17.046;2023-04-21T07:53:13;100459.00;;;14.87;58.66
31717;BME280;18301;51.076;17.046;2023-04-21T07:58:15;100456.06;;;15.00;58.67
31717;BME280;18301;51.076;17.046;2023-04-21T08:03:17;100462.38;;;15.29;58.11
31717;BME280;18301;51.076;17.046;2023-04-21T08:08:19;100459.22;;;15.53;54.75
31717;BME280;18301;51.076;17.046;2023-04-21T08:13:22;100459.69;;;15.49;56.85
31717;BME280;18301;51.076;17.046;2023-04-21T08:18:25;100451.50;;;15.87;56.78
31717;BME280;18301;51.076;17.046;2023-04-21T08:23:27;100451.41;;;16.26;54.27
31717;BME280;18301;51.076;17.046;2023-04-21T08:28:30;100457.09;;;16.33;51.71
31717;BME280;18301;51.076;17.046;2023-04-21T08:33:32;100445.88;;;16.46;53.55
31717;BME280;18301;51.076;17.046;2023-04-21T08:38:33;100446.00;;;16.82;52.55
31717;BME280;18301;51.076;17.046;2023-04-21T08:43:35;100450.59;;;16.81;52.38
31717;BME280;18301;51.076;17.046;2023-04-21T08:48:37;100449.13;;;16.87;51.99
31717;BME280;18301;51.076;17.046;2023-04-21T08:53:39;100447.28;;;17.05;50.78
31717;BME280;18301;51.076;17.046;2023-04-21T08:58:41;100444.47;;;17.33;51.23
31717;BME280;18301;51.076;17.046;2023-04-21T09:03:43;100439.66;;;17.62;51.07
31717;BME280;18301;51.076;17.046;2023-04-21T09:08:54;100432.47;;;17.61;49.84
31717;BME280;18301;51.076;17.046;2023-04-21T09:13:56;100429.91;;;17.78;50.65
31717;BME280;18301;51.076;17.046;2023-04-21T09:18:59;100423.94;;;17.82;45.11
31717;BME280;18301;51.076;17.046;2023-04-21T09:24:03;100420.00;;;18.03;49.13
31717;BME280;18301;51.076;17.046;2023-04-21T09:29:07;100413.44;;;18.22;46.88
31717;BME280;18301;51.076;17.046;2023-04-21T09:34:22;100420.59;;;18.14;48.77
31717;BME280;18301;51.076;17.046;2023-04-21T09:39:30;100414.75;;;18.44;46.18
31717;BME280;18301;51.076;17.046;2023-04-21T09:44:52;100410.16;;;18.78;44.52
31717;BME280;18301;51.076;17.046;2023-04-21T09:50:12;100408.94;;;18.73;44.73
31717;BME280;18301;51.076;17.046;2023-04-21T09:55:14;100400.28;;;18.59;46.83
31717;BME280;18301;51.076;17.046;2023-04-21T10:00:18;100396.25;;;18.72;45.41
31717;BME280;18301;51.076;17.046;2023-04-21T10:05:22;100390.88;;;18.96;43.70
31717;BME280;18301;51.076;17.046;2023-04-21T10:10:28;100395.19;;;19.15;44.19
31717;BME280;18301;51.076;17.046;2023-04-21T10:15:37;100387.50;;;19.27;43.69
31717;BME280;18301;51.076;17.046;2023-04-21T10:26:12;100368.00;;;19.54;40.67
31717;BME280;18301;51.076;17.046;2023-04-21T10:31:19;100377.91;;;19.64;40.78
31717;BME280;18301;51.076;17.046;2023-04-21T10:36:23;100362.00;;;19.67;41.48
31717;BME280;18301;51.076;17.046;2023-04-21T10:41:32;100350.50;;;19.96;41.67
31717;BME280;18301;51.076;17.046;2023-04-21T10:46:34;100355.06;;;20.12;39.93
31717;BME280;18301;51.076;17.046;2023-04-21T10:57:00;100348.66;;;19.72;38.01
31717;BME280;18301;51.076;17.046;2023-04-21T11:02:03;100333.06;;;19.89;37.20
31717;BME280;18301;51.076;17.046;2023-04-21T11:07:16;100334.13;;;20.28;35.75
31717;BME280;18301;51.076;17.046;2023-04-21T11:12:17;100334.22;;;20.42;36.32
31717;BME280;18301;51.076;17.046;2023-04-21T11:17:19;100326.81;;;20.51;34.96
31717;BME280;18301;51.076;17.046;2023-04-21T11:22:23;100325.19;;;20.34;34.28
31717;BME280;18301;51.076;17.046;2023-04-21T11:27:26;100329.22;;;20.07;34.04
31717;BME280;18301;51.076;17.046;2023-04-21T11:32:28;100318.72;;;20.27;35.94
31717;BME280;18301;51.076;17.046;2023-04-21T11:37:29;100321.56;;;20.41;33.54
31717;BME280;18301;51.076;17.046;2023-04-21T11:42:32;100316.03;;;20.50;33.91
31717;BME280;18301;51.076;17.046;2023-04-21T11:47:33;100305.84;;;20.35;34.61
31717;BME280;18301;51.076;17.046;2023-04-21T11:52:36;100299.69;;;20.25;34.69
31717;BME280;18301;51.076;17.046;2023-04-21T11:57:38;100285.03;;;20.49;33.96
31717;BME280;18301;51.076;17.046;2023-04-21T12:02:41;100295.94;;;20.26;34.31
31717;BME280;18301;51.076;17.046;2023-04-21T12:07:45;100292.50;;;19.93;34.21
31717;BME280;18301;51.076;17.046;2023-04-21T12:12:48;100296.34;;;19.35;34.87
31717;BME280;18301;51.076;17.046;2023-04-21T12:17:51;100288.31;;;19.49;35.77
31717;BME280;18301;51.076;17.046;2023-04-21T12:22:53;100283.97;;;19.80;35.14
31717;BME280;18301;51.076;17.046;2023-04-21T12:27:57;100280.09;;;19.41;35.90
31717;BME280;18301;51.076;17.046;2023-04-21T12:32:59;100272.72;;;19.58;35.56
31717;BME280;18301;51.076;17.046;2023-04-21T12:38:01;100273.88;;;19.80;35.11
31717;BME280;18301;51.076;17.046;2023-04-21T12:43:03;100263.72;;;19.97;34.83
31717;BME280;18301;51.076;17.046;2023-04-21T12:48:04;100267.06;;;19.60;35.65
31717;BME280;18301;51.076;17.046;2023-04-21T12:53:06;100259.56;;;19.45;37.13
31717;BME280;18301;51.076;17.046;2023-04-21T12:58:08;100252.63;;;19.90;35.41
31717;BME280;18301;51.076;17.046;2023-04-21T13:03:09;100252.53;;;20.07;34.72
31717;BME280;18301;51.076;17.046;2023-04-21T13:08:11;100249.66;;;20.31;33.92
31717;BME280;18301;51.076;17.046;2023-04-21T13:13:13;100255.59;;;20.12;34.84
31717;BME280;18301;51.076;17.046;2023-04-21T13:18:14;100247.28;;;19.97;33.43
31717;BME280;18301;51.076;17.046;2023-04-21T13:23:16;100240.25;;;19.94;34.17
31717;BME280;18301;51.076;17.046;2023-04-21T13:28:18;100236.88;;;19.84;34.37
31717;BME280;18301;51.076;17.046;2023-04-21T13:33:20;100239.69;;;19.68;35.43
31717;BME280;18301;51.076;17.046;2023-04-21T13:38:21;100217.03;;;19.82;36.05
31717;BME280;18301;51.076;17.046;2023-04-21T13:43:23;100221.22;;;20.01;34.46
31717;BME280;18301;51.076;17.046;2023-04-21T13:48:25;100222.63;;;20.28;34.51
31717;BME280;18301;51.076;17.046;2023-04-21T13:53:26;100212.03;;;20.25;34.58
31717;BME280;18301;51.076;17.046;2023-04-21T13:58:28;100206.91;;;20.22;33.16
31717;BME280;18301;51.076;17.046;2023-04-21T14:03:31;100204.22;;;20.14;32.61
31717;BME280;18301;51.076;17.046;2023-04-21T14:08:32;100197.44;;;20.02;32.63
31717;BME280;18301;51.076;17.046;2023-04-21T14:13:34;100189.88;;;20.04;32.54
31717;BME280;18301;51.076;17.046;2023-04-21T14:18:48;100194.06;;;19.91;33.04
31717;BME280;18301;51.076;17.046;2023-04-21T14:23:49;100188.06;;;19.96;32.33
31717;BME280;18301;51.076;17.046;2023-04-21T14:28:51;100180.50;;;19.98;32.44
31717;BME280;18301;51.076;17.046;2023-04-21T14:33:52;100175.69;;;19.61;32.78
31717;BME280;18301;51.076;17.046;2023-04-21T14:38:54;100164.47;;;19.47;32.83
31717;BME280;18301;51.076;17.046;2023-04-21T14:43:55;100161.50;;;19.65;33.61
31717;BME280;18301;51.076;17.046;2023-04-21T14:48:58;100162.25;;;19.90;33.45
31717;BME280;18301;51.076;17.046;2023-04-21T14:53:59;100158.31;;;20.16;32.96
31717;BME280;18301;51.076;17.046;2023-04-21T14:59:01;100162.75;;;19.86;32.55
31717;BME280;18301;51.076;17.046;2023-04-21T15:04:02;100157.91;;;19.57;33.45
31717;BME280;18301;51.076;17.046;2023-04-21T15:09:04;100155.47;;;19.22;34.37
31717;BME280;18301;51.076;17.046;2023-04-21T15:14:06;100150.22;;;19.13;35.15
31717;BME280;18301;51.076;17.046;2023-04-21T15:19:07;100140.75;;;19.23;35.60
31717;BME280;18301;51.076;17.046;2023-04-21T15:24:09;100138.00;;;19.31;35.31
31717;BME280;18301;51.076;17.046;2023-04-21T15:29:11;100145.69;;;19.36;34.94
31717;BME280;18301;51.076;17.046;2023-04-21T15:34:12;100145.63;;;19.52;34.83
31717;BME280;18301;51.076;17.046;2023-04-21T15:39:13;100141.22;;;19.43;34.94
31717;BME280;18301;51.076;17.046;2023-04-21T15:44:15;100131.34;;;19.34;35.67
31717;BME280;18301;51.076;17.046;2023-04-21T15:49:16;100134.06;;;19.34;35.92
31717;BME280;18301;51.076;17.046;2023-04-21T15:54:18;100127.78;;;19.25;36.19
31717;BME280;18301;51.076;17.046;2023-04-21T15:59:19;100129.47;;;19.26;35.01
31717;BME280;18301;51.076;17.046;2023-04-21T16:04:24;100121.09;;;19.28;35.61
31717;BME280;18301;51.076;17.046;2023-04-21T16:09:26;100117.88;;;19.16;36.32
31717;BME280;18301;51.076;17.046;2023-04-21T16:14:27;100106.47;;;18.96;36.42
31717;BME280;18301;51.076;17.046;2023-04-21T16:19:43;100112.34;;;18.77;37.12
31717;BME280;18301;51.076;17.046;2023-04-21T16:24:45;100107.56;;;18.54;37.26
31717;BME280;18301;51.076;17.046;2023-04-21T16:29:47;100097.81;;;18.44;37.56
31717;BME280;18301;51.076;17.046;2023-04-21T16:34:50;100093.41;;;18.26;38.19
31717;BME280;18301;51.076;17.046;2023-04-21T16:39:52;100099.84;;;18.25;38.25
31717;BME280;18301;51.076;17.046;2023-04-21T16:44:53;100096.13;;;18.18;38.38
31717;BME280;18301;51.076;17.046;2023-04-21T16:49:59;100104.84;;;18.13;38.58
31717;BME280;18301;51.076;17.046;2023-04-21T16:55:00;100092.88;;;17.98;38.90
31717;BME280;18301;51.076;17.046;2023-04-21T17:00:03;100095.38;;;17.91;39.20
31717;BME280;18301;51.076;17.046;2023-04-21T17:05:07;100087.72;;;17.87;39.17
31717;BME280;18301;51.076;17.046;2023-04-21T17:10:09;100087.72;;;17.87;39.31
31717;BME280;18301;51.076;17.046;2023-04-21T17:15:11;100080.66;;;17.76;39.38
31717;BME280;18301;51.076;17.046;2023-04-21T17:20:13;100086.94;;;17.60;40.03
31717;BME280;18301;51.076;17.046;2023-04-21T17:25:14;100082.66;;;17.49;40.12
31717;BME280;18301;51.076;17.046;2023-04-21T17:30:16;100075.13;;;17.43;40.70
31717;BME280;18301;51.076;17.046;2023-04-21T17:35:19;100076.59;;;17.30;41.26
31717;BME280;18301;51.076;17.046;2023-04-21T17:40:20;100078.09;;;17.16;41.55
31717;BME280;18301;51.076;17.046;2023-04-21T17:45:22;100082.28;;;17.02;42.22
31717;BME280;18301;51.076;17.046;2023-04-21T17:50:23;100081.88;;;16.89;42.73
31717;BME280;18301;51.076;17.046;2023-04-21T17:55:27;100086.59;;;16.78;43.74
31717;BME280;18301;51.076;17.046;2023-04-21T18:00:29;100083.25;;;16.67;44.42
31717;BME280;18301;51.076;17.046;2023-04-21T18:05:34;100088.63;;;16.58;44.36
31717;BME280;18301;51.076;17.046;2023-04-21T18:10:36;100098.94;;;16.47;44.02
31717;BME280;18301;51.076;17.046;2023-04-21T18:15:37;100103.63;;;16.37;43.76
31717;BME280;18301;51.076;17.046;2023-04-21T18:20:39;100104.56;;;16.27;43.39
31717;BME280;18301;51.076;17.046;2023-04-21T18:25:41;100105.50;;;16.18;43.58
31717;BME280;18301;51.076;17.046;2023-04-21T18:30:43;100110.19;;;16.08;43.70
31717;BME280;18301;51.076;17.046;2023-04-21T18:35:45;100111.25;;;15.97;44.17
31717;BME280;18301;51.076;17.046;2023-04-21T18:40:46;100116.06;;;15.85;45.01
31717;BME280;18301;51.076;17.046;2023-04-21T18:45:48;100111.56;;;15.76;45.38
31717;BME280;18301;51.076;17.046;2023-04-21T18:50:49;100117.63;;;15.60;45.55
31717;BME280;18301;51.076;17.046;2023-04-21T18:55:51;100129.13;;;15.54;45.72
31717;BME280;18301;51.076;17.046;2023-04-21T19:00:53;100123.44;;;15.48;46.57
31717;BME280;18301;51.076;17.046;2023-04-21T19:05:55;100117.22;;;15.37;46.80
31717;BME280;18301;51.076;17.046;2023-04-21T19:10:56;100117.50;;;15.34;47.15
31717;BME280;18301;51.076;17.046;2023-04-21T19:15:58;100123.56;;;15.28;47.27
31717;BME280;18301;51.076;17.046;2023-04-21T19:20:59;100117.63;;;15.15;47.64
31717;BME280;18301;51.076;17.046;2023-04-21T19:26:01;100118.50;;;15.06;47.83
31717;BME280;18301;51.076;17.046;2023-04-21T19:31:05;100114.53;;;15.00;47.57
31717;BME280;18301;51.076;17.046;2023-04-21T19:36:07;100113.41;;;14.83;47.93
31717;BME280;18301;51.076;17.046;2023-04-21T19:41:09;100116.34;;;14.72;48.38
31717;BME280;18301;51.076;17.046;2023-04-21T19:46:11;100111.78;;;14.63;48.37
31717;BME280;18301;51.076;17.046;2023-04-21T19:51:12;100109.50;;;14.58;48.55
31717;BME280;18301;51.076;17.046;2023-04-21T19:56:14;100109.22;;;14.52;48.85
31717;BME280;18301;51.076;17.046;2023-04-21T20:01:15;100103.63;;;14.43;48.98
31717;BME280;18301;51.076;17.046;2023-04-21T20:06:17;100112.63;;;14.44;48.77
31717;BME280;18301;51.076;17.046;2023-04-21T20:11:20;100106.22;;;14.35;49.09
31717;BME280;18301;51.076;17.046;2023-04-21T20:16:21;100111.78;;;14.24;49.47
31717;BME280;18301;51.076;17.046;2023-04-21T20:21:24;100112.66;;;14.15;50.18
31717;BME280;18301;51.076;17.046;2023-04-21T20:26:25;100113.50;;;14.05;50.19
31717;BME280;18301;51.076;17.046;2023-04-21T20:31:27;100121.38;;;13.99;50.63
31717;BME280;18301;51.076;17.046;2023-04-21T20:36:29;100122.94;;;13.92;50.79
31717;BME280;18301;51.076;17.046;2023-04-21T20:41:31;100117.66;;;13.90;50.81
31717;BME280;18301;51.076;17.046;2023-04-21T20:46:32;100119.50;;;13.80;51.07
31717;BME280;18301;51.076;17.046;2023-04-21T20:51:39;100114.03;;;13.61;51.23
31717;BME280;18301;51.076;17.046;2023-04-21T20:56:42;100125.44;;;13.54;51.26
31717;BME280;18301;51.076;17.046;2023-04-21T21:01:44;100128.00;;;13.46;51.07
31717;BME280;18301;51.076;17.046;2023-04-21T21:06:46;100121.09;;;13.42;50.83
31717;BME280;18301;51.076;17.046;2023-04-21T21:11:47;100123.13;;;13.40;50.96
31717;BME280;18301;51.076;17.046;2023-04-21T21:16:49;100126.50;;;13.32;51.30
31717;BME280;18301;51.076;17.046;2023-04-21T21:21:54;100123.38;;;13.27;51.32
31717;BME280;18301;51.076;17.046;2023-04-21T21:26:56;100121.72;;;13.15;51.60
31717;BME280;18301;51.076;17.046;2023-04-21T21:31:58;100126.97;;;13.07;51.36
31717;BME280;18301;51.076;17.046;2023-04-21T21:36:59;100121.22;;;13.00;51.70
31717;BME280;18301;51.076;17.046;2023-04-21T21:42:01;100132.06;;;13.00;51.78
31717;BME280;18301;51.076;17.046;2023-04-21T21:47:02;100128.91;;;12.95;51.69
31717;BME280;18301;51.076;17.046;2023-04-21T21:52:04;100135.13;;;12.86;51.86
31717;BME280;18301;51.076;17.046;2023-04-21T21:57:06;100121.41;;;12.78;52.27
31717;BME280;18301;51.076;17.046;2023-04-21T22:02:07;100134.22;;;12.76;52.57
31717;BME280;18301;51.076;17.046;2023-04-21T22:07:09;100137.47;;;12.70;52.88
31717;BME280;18301;51.076;17.046;2023-04-21T22:12:10;100136.13;;;12.64;53.22
31717;BME280;18301;51.076;17.046;2023-04-21T22:17:12;100135.66;;;12.59;53.61
31717;BME280;18301;51.076;17.046;2023-04-21T22:22:14;100134.09;;;12.56;53.82
31717;BME280;18301;51.076;17.046;2023-04-21T22:27:16;100128.97;;;12.53;53.88
31717;BME280;18301;51.076;17.046;2023-04-21T22:32:17;100122.06;;;12.49;54.22
31717;BME280;18301;51.076;17.046;2023-04-21T22:37:19;100128.00;;;12.43;54.11
31717;BME280;18301;51.076;17.046;2023-04-21T22:42:20;100131.97;;;12.39;54.08
31717;BME280;18301;51.076;17.046;2023-04-21T22:47:22;100125.38;;;12.32;54.05
31717;BME280;18301;51.076;17.046;2023-04-21T22:52:24;100129.59;;;12.25;54.23
31717;BME280;18301;51.076;17.046;2023-04-21T22:57:28;100131.84;;;12.19;54.62
31717;BME280;18301;51.076;17.046;2023-04-21T23:02:30;100127.66;;;12.15;54.93
31717;BME280;18301;51.076;17.046;2023-04-21T23:07:31;100125.63;;;12.08;55.15
31717;BME280;18301;51.076;17.046;2023-04-21T23:12:33;100126.25;;;12.00;55.11
31717;BME280;18301;51.076;17.046;2023-04-21T23:17:35;100132.78;;;11.97;55.37
31717;BME280;18301;51.076;17.046;2023-04-21T23:22:36;100128.75;;;11.92;56.59
31717;BME280;18301;51.076;17.046;2023-04-21T23:27:38;100124.94;;;11.83;57.12
31717;BME280;18301;51.076;17.046;2023-04-21T23:32:39;100119.19;;;11.77;57.87
31717;BME280;18301;51.076;17.046;2023-04-21T23:37:41;100114.03;;;11.73;58.56
31717;BME280;18301;51.076;17.046;2023-04-21T23:42:43;100121.66;;;11.68;58.79
31717;BME280;18301;51.076;17.046;2023-04-21T23:47:47;100116.91;;;11.61;58.69
31717;BME280;18301;51.076;17.046;2023-04-21T23:52:49;100120.97;;;11.55;59.09
31717;BME280;18301;51.076;17.046;2023-04-21T23:57:50;100120.47;;;11.50;59.45
